Time;durP1;ratioP1;P1;durP2;ratioP2;P2;SDS_P1;SDS_P2;PMS_P1;PMS_P2;Temp;Humidity;BMP_temperature;BMP_pressure;BME280_temperature;BME280_humidity;BME280_pressure;Samples;Min_cycle;Max_cycle;Signal;HPM_P1;HPM_P2
2023/09/23 00:02:17;;;;;;;;;;;;;;;19.80;46.01;99359.75;5076242;28;19913;-64
2023/09/23 00:04:43;;;;;;;;;;;;;;;19.68;46.23;99357.34;5075996;28;19916;-65
2023/09/23 00:07:09;;;;;;;;;;;;;;;19.70;46.55;99364.13;5076553;28;19913;-65
2023/09/23 00:09:36;;;;;;;;;;;;;;;19.68;46.38;99346.44;5075764;28;19920;-65
2023/09/23 00:12:02;;;;;;;;;;;;;;;19.67;47.04;99356.53;5075972;28;20368;-65
2023/09/23 00:14:28;;;;;;;;;;;;;;;19.68;46.40;99344.53;5057931;28;19916;-64
2023/09/23 00:16:53;;;;;;;;;;;;;;;19.63;46.10;99349.19;5090085;28;19916;-64
2023/09/23 00:19:19;;;;;;;;;;;;;;;19.58;46.15;99350.03;5096172;28;19912;-65
2023/09/23 00:21:45;;;;;;;;;;;;;;;19.58;46.78;99354.69;5096088;28;19923;-65
2023/09/23 00:24:11;;;;;;;;;;;;;;;19.58;46.56;99355.50;5095973;28;19994;-65
2023/09/23 00:26:36;;;;;;;;;;;;;;;19.62;46.65;99351.09;5096259;28;19916;-65
2023/09/23 00:29:01;;;;;;;;;;;;;;;19.65;46.73;99360.63;5077193;28;19978;-65
2023/09/23 00:31:27;;;;;;;;;;;;;;;19.72;46.56;99364.72;5075761;28;19916;-65
2023/09/23 00:33:52;;;;;;;;;;;;;;;19.77;46.60;99357.59;5075456;28;20304;-65
2023/09/23 00:36:18;;;;;;;;;;;;;;;19.83;46.85;99349.09;5075425;28;19955;-65
2023/09/23 00:38:43;;;;;;;;;;;;;;;19.90;46.79;99352.31;5075294;28;20373;-65
2023/09/23 00:41:09;;;;;;;;;;;;;;;19.93;46.68;99361.84;5075882;28;19995;-65
2023/09/23 00:43:34;;;;;;;;;;;;;;;19.99;46.66;99360.72;5075324;28;20292;-65
2023/09/23 00:46:01;;;;;;;;;;;;;;;20.06;46.63;99372.13;5057422;28;19935;-65
2023/09/23 00:48:30;;;;;;;;;;;;;;;20.07;46.85;99367.47;5075332;28;20246;-65
2023/09/23 00:50:56;;;;;;;;;;;;;;;20.14;46.83;99362.53;5075633;28;20044;-65
2023/09/23 00:53:23;;;;;;;;;;;;;;;20.20;46.71;99368.75;5075229;28;20353;-65
2023/09/23 00:55:55;;;;;;;;;;;;;;;20.22;46.59;99367.34;5084196;28;19940;-65
2023/09/23 00:58:21;;;;;;;;;;;;;;;20.25;46.73;99361.34;5095342;28;19959;-65
2023/09/23 01:00:48;;;;;;;;;;;;;;;20.28;46.52;99368.13;5095587;28;19946;-65
2023/09/23 01:03:15;;;;;;;;;;;;;;;20.35;46.82;99378.72;5077756;28;19913;-65
2023/09/23 01:05:41;;;;;;;;;;;;;;;20.39;46.62;99368.84;5074941;28;19919;-65
2023/09/23 01:08:18;;;;;;;;;;;;;;;20.47;46.71;99362.81;5074750;28;19920;-65
2023/09/23 01:10:43;;;;;;;;;;;;;;;20.49;46.73;99361.41;5074949;28;19969;-64
2023/09/23 01:13:09;;;;;;;;;;;;;;;20.53;46.51;99366.31;5074923;28;19916;-65
2023/09/23 01:15:40;;;;;;;;;;;;;;;20.57;46.48;99364.63;5060056;28;20007;-65
2023/09/23 01:18:07;;;;;;;;;;;;;;;20.62;46.44;99364.59;5095214;28;19928;-65
2023/09/23 01:20:33;;;;;;;;;;;;;;;20.62;46.65;99359.97;5095288;28;19912;-65
2023/09/23 01:22:58;;;;;;;;;;;;;;;20.65;46.25;99369.47;5095014;28;19922;-65
2023/09/23 01:25:25;;;;;;;;;;;;;;;20.66;46.50;99368.38;5094827;28;20033;-65
2023/09/23 01:27:50;;;;;;;;;;;;;;;20.66;46.44;99371.91;5085766;28;20301;-65
2023/09/23 01:30:16;;;;;;;;;;;;;;;20.67;46.37;99367.25;5074540;28;20004;-65
2023/09/23 01:32:50;;;;;;;;;;;;;;;20.63;45.96;99363.50;5074598;28;19919;-65
2023/09/23 01:35:20;;;;;;;;;;;;;;;20.57;46.22;99370.88;5074391;28;19916;-65
2023/09/23 01:37:46;;;;;;;;;;;;;;;20.57;46.08;99379.06;5074512;28;19920;-65
2023/09/23 01:40:20;;;;;;;;;;;;;;;20.60;46.15;99366.78;5074262;28;19979;-65
2023/09/23 01:42:48;;;;;;;;;;;;;;;20.60;46.25;99375.81;5073867;28;19913;-65
2023/09/23 01:45:14;;;;;;;;;;;;;;;20.63;46.16;99375.22;5074460;28;20352;-65
2023/09/23 01:47:40;;;;;;;;;;;;;;;20.61;46.32;99377.41;5074158;28;20042;-65
2023/09/23 01:50:06;;;;;;;;;;;;;;;20.64;46.36;99379.56;5074058;28;19965;-65
2023/09/23 01:52:32;;;;;;;;;;;;;;;20.64;46.18;99379.56;5074275;28;19916;-65
2023/09/23 01:55:05;;;;;;;;;;;;;;;20.67;46.28;99376.28;5077172;28;19951;-65
2023/09/23 01:57:33;;;;;;;;;;;;;;;20.68;46.22;99372.44;5094165;28;19924;-65
2023/09/23 01:59:58;;;;;;;;;;;;;;;20.70;46.26;99377.63;5094366;28;19999;-65
2023/09/23 02:02:24;;;;;;;;;;;;;;;20.71;46.38;99370.22;5083828;28;19983;-65
2023/09/23 02:04:49;;;;;;;;;;;;;;;20.72;46.29;99371.88;5073723;28;20349;-65
2023/09/23 02:07:14;;;;;;;;;;;;;;;20.72;46.40;99377.34;5074073;28;19912;-64
2023/09/23 02:09:40;;;;;;;;;;;;;;;20.76;46.53;99376.44;5072133;28;20365;-64
2023/09/23 02:12:05;;;;;;;;;;;;;;;20.80;45.98;99377.53;5053959;28;19919;-65
2023/09/23 02:14:30;;;;;;;;;;;;;;;20.82;46.23;99375.31;5053883;28;20012;-65
2023/09/23 02:16:56;;;;;;;;;;;;;;;20.81;46.12;99390.06;5082350;28;19948;-65
2023/09/23 02:19:21;;;;;;;;;;;;;;;20.81;46.15;99394.72;5094164;28;19934;-65
2023/09/23 02:21:47;;;;;;;;;;;;;;;20.81;46.36;99397.44;5093972;28;20453;-65
2023/09/23 02:24:13;;;;;;;;;;;;;;;20.77;45.84;99399.94;5094100;28;19981;-65
2023/09/23 02:26:38;;;;;;;;;;;;;;;20.78;46.26;99398.84;5082821;28;19913;-65
2023/09/23 02:29:04;;;;;;;;;;;;;;;20.81;46.18;99397.44;5082547;28;19934;-64
2023/09/23 02:31:29;;;;;;;;;;;;;;;20.79;45.98;99408.63;5073776;28;20015;-65
2023/09/23 02:33:55;;;;;;;;;;;;;;;20.81;45.93;99405.63;5073635;28;20427;-64
2023/09/23 02:36:20;;;;;;;;;;;;;;;20.77;46.05;99405.38;5073426;28;19920;-64
2023/09/23 02:38:45;;;;;;;;;;;;;;;20.78;46.25;99406.19;5073677;28;19917;-65
2023/09/23 02:41:11;;;;;;;;;;;;;;;20.72;46.20;99405.41;5073691;28;20315;-64
2023/09/23 02:43:37;;;;;;;;;;;;;;;20.76;46.14;99408.38;5073369;28;19995;-64
2023/09/23 02:46:03;;;;;;;;;;;;;;;20.75;46.30;99406.78;5073737;28;19954;-65
2023/09/23 02:48:28;;;;;;;;;;;;;;;20.72;46.38;99399.97;5073556;28;20273;-65
2023/09/23 02:50:57;;;;;;;;;;;;;;;20.72;46.27;99396.44;5073303;28;20408;-65
2023/09/23 02:53:23;;;;;;;;;;;;;;;20.62;46.30;99403.59;5073136;28;20169;-64
2023/09/23 02:55:52;;;;;;;;;;;;;;;20.63;46.72;99402.50;5081679;28;20002;-64
2023/09/23 02:58:17;;;;;;;;;;;;;;;20.69;46.45;99406.00;5075318;28;19977;-64
2023/09/23 03:00:56;;;;;;;;;;;;;;;20.69;46.16;99406.00;5093212;28;19916;-64
2023/09/23 03:03:22;;;;;;;;;;;;;;;20.57;46.59;99403.63;5055049;28;19948;-64
2023/09/23 03:05:54;;;;;;;;;;;;;;;20.59;46.37;99398.69;5053165;28;20309;-64
2023/09/23 03:08:22;;;;;;;;;;;;;;;20.59;46.16;99403.34;5035117;28;19964;-64
2023/09/23 03:10:49;;;;;;;;;;;;;;;20.48;46.64;99403.41;5063474;28;19912;-64
2023/09/23 03:13:14;;;;;;;;;;;;;;;20.55;46.47;99407.75;5073096;28;20000;-64
2023/09/23 03:15:52;;;;;;;;;;;;;;;20.38;46.93;99399.97;5076840;28;19920;-64
2023/09/23 03:18:27;;;;;;;;;;;;;;;20.31;47.10;99403.81;5093568;28;19947;-64
2023/09/23 03:20:53;;;;;;;;;;;;;;;20.29;47.21;99411.47;5093221;28;19979;-63
2023/09/23 03:23:18;;;;;;;;;;;;;;;20.25;47.16;99402.22;5078522;28;19955;-63
2023/09/23 03:25:44;;;;;;;;;;;;;;;20.27;47.08;99402.75;5073194;28;19912;-63
2023/09/23 03:28:10;;;;;;;;;;;;;;;20.32;46.94;99410.09;5073130;28;19924;-63
2023/09/23 03:30:35;;;;;;;;;;;;;;;20.29;46.87;99405.22;5072975;28;19912;-63
2023/09/23 03:33:02;;;;;;;;;;;;;;;20.29;47.10;99411.47;5072950;28;19913;-63
2023/09/23 03:35:28;;;;;;;;;;;;;;;20.30;47.19;99413.13;5072795;28;19917;-63
2023/09/23 03:37:53;;;;;;;;;;;;;;;20.24;46.92;99408.78;5073170;28;19920;-63
2023/09/23 03:40:24;;;;;;;;;;;;;;;20.21;47.08;99406.63;5073162;28;19912;-63
2023/09/23 03:42:50;;;;;;;;;;;;;;;20.17;46.53;99408.31;5072977;28;19919;-63
2023/09/23 03:45:17;;;;;;;;;;;;;;;20.17;46.76;99419.22;5073067;28;20003;-63
2023/09/23 03:47:44;;;;;;;;;;;;;;;20.18;46.67;99423.53;5072951;28;19916;-63
2023/09/23 03:50:09;;;;;;;;;;;;;;;20.20;46.94;99431.44;5072841;28;19919;-64
2023/09/23 03:52:36;;;;;;;;;;;;;;;20.29;47.01;99433.28;5072671;28;19912;-64
2023/09/23 03:55:06;;;;;;;;;;;;;;;20.38;47.25;99427.25;5075927;28;19912;-65
2023/09/23 03:57:31;;;;;;;;;;;;;;;20.44;47.26;99439.72;5087960;28;19916;-64
2023/09/23 03:59:56;;;;;;;;;;;;;;;20.43;46.74;99438.09;5072828;28;20346;-63
2023/09/23 04:02:22;;;;;;;;;;;;;;;20.43;46.48;99438.94;5062446;28;19913;-63
2023/09/23 04:04:53;;;;;;;;;;;;;;;20.42;46.37;99447.38;5052622;28;20286;-64
2023/09/23 04:07:19;;;;;;;;;;;;;;;20.39;46.79;99442.50;5038125;28;19966;-63
2023/09/23 04:09:44;;;;;;;;;;;;;;;20.42;46.97;99439.22;5057966;28;20319;-64
2023/09/23 04:12:10;;;;;;;;;;;;;;;20.37;46.62;99450.94;5076289;28;19912;-64
2023/09/23 04:14:35;;;;;;;;;;;;;;;20.37;46.70;99448.22;5076011;28;19964;-64
2023/09/23 04:17:00;;;;;;;;;;;;;;;20.31;46.60;99458.34;5090860;28;19955;-63
2023/09/23 04:19:26;;;;;;;;;;;;;;;20.28;46.49;99456.22;5082234;28;19913;-64
2023/09/23 04:21:52;;;;;;;;;;;;;;;20.29;46.78;99465.19;5076013;28;19913;-63
2023/09/23 04:24:17;;;;;;;;;;;;;;;20.30;46.71;99466.84;5075687;28;19956;-63
2023/09/23 04:26:42;;;;;;;;;;;;;;;20.29;47.05;99466.00;5075786;28;19916;-63
2023/09/23 04:29:07;;;;;;;;;;;;;;;20.35;47.02;99476.88;5075761;28;19912;-63
2023/09/23 04:31:33;;;;;;;;;;;;;;;20.31;46.90;99473.91;5075975;28;19917;-63
2023/09/23 04:33:59;;;;;;;;;;;;;;;20.24;46.89;99485.13;5075820;28;20307;-63
2023/09/23 04:36:24;;;;;;;;;;;;;;;20.16;47.02;99483.00;5075627;28;19916;-63
2023/09/23 04:38:49;;;;;;;;;;;;;;;20.16;47.42;99490.38;5075491;28;19966;-63
2023/09/23 04:41:15;;;;;;;;;;;;;;;20.13;47.11;99483.53;5075560;28;19912;-63
2023/09/23 04:43:41;;;;;;;;;;;;;;;20.13;47.24;99491.72;5075634;28;19965;-63
2023/09/23 04:46:06;;;;;;;;;;;;;;;20.09;47.22;99496.13;5075523;28;19931;-63
2023/09/23 04:48:31;;;;;;;;;;;;;;;20.13;47.10;99505.34;5075186;28;20285;-63
2023/09/23 04:50:57;;;;;;;;;;;;;;;20.10;46.93;99500.47;5075196;28;19999;-64
2023/09/23 04:53:22;;;;;;;;;;;;;;;20.09;47.15;99496.13;5075344;28;19986;-63
2023/09/23 04:55:48;;;;;;;;;;;;;;;20.07;46.78;99499.13;5084331;28;19912;-64
2023/09/23 04:58:13;;;;;;;;;;;;;;;20.05;47.14;99514.13;5095391;28;19927;-63
2023/09/23 05:00:38;;;;;;;;;;;;;;;20.00;47.19;99508.69;5095462;28;19916;-64
2023/09/23 05:03:05;;;;;;;;;;;;;;;20.00;47.22;99512.25;5079120;28;19920;-64
2023/09/23 05:05:32;;;;;;;;;;;;;;;20.04;47.06;99517.94;5075452;28;19916;-64
2023/09/23 05:07:59;;;;;;;;;;;;;;;19.95;46.80;99525.06;5075028;28;20276;-64
2023/09/23 05:10:26;;;;;;;;;;;;;;;19.80;47.71;99509.59;5067656;28;20031;-64
2023/09/23 05:12:55;;;;;;;;;;;;;;;19.83;47.44;99511.78;5054825;28;19913;-64
2023/09/23 05:15:21;;;;;;;;;;;;;;;19.83;47.38;99518.03;5066829;28;19918;-64
2023/09/23 05:17:49;;;;;;;;;;;;;;;19.88;47.90;99515.28;5094297;28;20010;-64
2023/09/23 05:20:15;;;;;;;;;;;;;;;19.95;47.28;99519.59;5087046;28;19921;-64
2023/09/23 05:22:41;;;;;;;;;;;;;;;19.99;47.53;99521.50;5074656;28;19913;-64
2023/09/23 05:25:07;;;;;;;;;;;;;;;20.02;46.82;99518.25;5074941;28;19935;-64
2023/09/23 05:27:32;;;;;;;;;;;;;;;20.03;46.73;99508.94;5077489;28;19912;-64
2023/09/23 05:29:58;;;;;;;;;;;;;;;20.01;47.34;99516.59;5074452;28;19982;-64
2023/09/23 05:32:23;;;;;;;;;;;;;;;20.04;47.10;99513.31;5074782;28;19982;-64
2023/09/23 05:34:51;;;;;;;;;;;;;;;20.04;46.98;99528.84;5074476;28;20365;-64
2023/09/23 05:37:16;;;;;;;;;;;;;;;20.08;46.85;99529.94;5074461;28;19916;-64
2023/09/23 05:39:45;;;;;;;;;;;;;;;20.15;46.36;99538.63;5074267;28;19923;-66
2023/09/23 05:42:11;;;;;;;;;;;;;;;20.20;46.47;99541.31;5074247;28;20351;-63
2023/09/23 05:44:36;;;;;;;;;;;;;;;20.12;46.45;99550.09;5074547;28;19919;-64
2023/09/23 05:47:02;;;;;;;;;;;;;;;20.10;46.67;99549.56;5074236;28;19951;-64
2023/09/23 05:49:27;;;;;;;;;;;;;;;20.18;46.67;99553.59;5074064;28;19917;-64
2023/09/23 05:51:54;;;;;;;;;;;;;;;20.17;46.24;99554.69;5074249;28;19944;-64
2023/09/23 05:54:20;;;;;;;;;;;;;;;20.12;46.34;99558.25;5073982;28;20250;-65
2023/09/23 05:56:48;;;;;;;;;;;;;;;20.08;46.77;99557.19;5074179;28;19913;-64
2023/09/23 05:59:14;;;;;;;;;;;;;;;20.08;46.46;99558.00;5074135;28;19966;-64
2023/09/23 06:01:40;;;;;;;;;;;;;;;20.16;46.82;99558.53;5073899;28;20383;-64
2023/09/23 06:04:06;;;;;;;;;;;;;;;20.16;46.41;99559.31;5074198;28;19913;-64
2023/09/23 06:06:32;;;;;;;;;;;;;;;20.07;47.00;99561.81;5073864;28;19912;-65
2023/09/23 06:08:58;;;;;;;;;;;;;;;20.13;46.75;99559.88;5073808;28;19973;-64
2023/09/23 06:11:23;;;;;;;;;;;;;;;20.09;46.49;99572.44;5067504;28;20009;-64
2023/09/23 06:13:49;;;;;;;;;;;;;;;20.07;46.77;99569.19;5073844;28;19947;-64
2023/09/23 06:16:16;;;;;;;;;;;;;;;20.02;46.89;99578.19;5076103;28;20280;-65
2023/09/23 06:18:41;;;;;;;;;;;;;;;20.07;47.14;99580.88;5073450;28;19970;-64
2023/09/23 06:21:07;;;;;;;;;;;;;;;20.11;47.11;99590.16;5073982;28;19912;-64
2023/09/23 06:23:32;;;;;;;;;;;;;;;20.16;46.49;99583.88;5072258;28;19920;-64
2023/09/23 06:26:01;;;;;;;;;;;;;;;20.21;46.72;99589.31;5053881;28;19913;-64
2023/09/23 06:28:27;;;;;;;;;;;;;;;20.24;46.59;99593.38;5075739;28;19958;-64
2023/09/23 06:30:52;;;;;;;;;;;;;;;20.22;46.64;99595.56;5073405;28;19912;-64
2023/09/23 06:33:18;;;;;;;;;;;;;;;20.18;45.89;99598.03;5073885;28;19995;-65
2023/09/23 06:35:43;;;;;;;;;;;;;;;20.21;46.57;99608.38;5073464;28;20373;-64
2023/09/23 06:38:09;;;;;;;;;;;;;;;20.25;46.70;99605.91;5073465;28;19924;-64
2023/09/23 06:40:34;;;;;;;;;;;;;;;20.17;46.27;99609.19;5073486;28;19939;-64
2023/09/23 06:42:59;;;;;;;;;;;;;;;20.17;46.78;99614.66;5073690;28;19916;-64
2023/09/23 06:45:25;;;;;;;;;;;;;;;20.26;46.69;99613.81;5073521;28;20452;-64
2023/09/23 06:47:50;;;;;;;;;;;;;;;20.34;46.77;99614.31;5073528;28;19958;-64
2023/09/23 06:50:16;;;;;;;;;;;;;;;20.34;46.53;99620.59;5073428;28;19936;-64
2023/09/23 06:52:42;;;;;;;;;;;;;;;20.39;46.10;99623.31;5073274;28;19962;-64
2023/09/23 06:55:07;;;;;;;;;;;;;;;20.43;46.26;99626.28;5076651;28;19912;-64
2023/09/23 06:57:34;;;;;;;;;;;;;;;20.45;45.71;99630.38;5093388;28;19935;-64
2023/09/23 07:00:00;;;;;;;;;;;;;;;20.46;45.64;99634.72;5093534;28;19961;-64
2023/09/23 07:02:25;;;;;;;;;;;;;;;20.50;46.22;99630.34;5082663;28;19947;-64
2023/09/23 07:04:50;;;;;;;;;;;;;;;20.52;45.52;99640.97;5073275;28;20304;-64
2023/09/23 07:07:16;;;;;;;;;;;;;;;20.52;45.66;99638.22;5073194;28;19919;-64
2023/09/23 07:09:41;;;;;;;;;;;;;;;20.52;45.77;99631.97;5053773;28;19920;-64
2023/09/23 07:12:06;;;;;;;;;;;;;;;20.46;46.25;99636.63;5056121;28;19959;-64
2023/09/23 07:14:32;;;;;;;;;;;;;;;20.52;45.94;99648.34;5068663;28;19922;-64
2023/09/23 07:16:57;;;;;;;;;;;;;;;20.68;45.64;99648.00;5066097;28;19917;-64
2023/09/23 07:19:22;;;;;;;;;;;;;;;20.80;44.93;99649.59;5073087;28;19939;-64
2023/09/23 07:21:48;;;;;;;;;;;;;;;20.87;45.42;99650.91;5072977;28;19956;-64
2023/09/23 07:24:13;;;;;;;;;;;;;;;20.92;44.96;99652.78;5073164;28;19920;-64
2023/09/23 07:26:38;;;;;;;;;;;;;;;20.94;44.91;99649.78;5064076;28;19917;-64
2023/09/23 07:29:04;;;;;;;;;;;;;;;20.89;44.56;99645.16;5066959;28;20246;-64
2023/09/23 07:31:29;;;;;;;;;;;;;;;20.91;44.88;99650.34;5060293;28;20011;-64
2023/09/23 07:33:54;;;;;;;;;;;;;;;20.94;45.70;99639.69;5065632;28;19966;-64
2023/09/23 07:36:19;;;;;;;;;;;;;;;20.85;44.78;99644.09;5073136;28;19966;-64
2023/09/23 07:38:45;;;;;;;;;;;;;;;20.73;44.50;99639.00;5072821;28;20507;-64
2023/09/23 07:41:11;;;;;;;;;;;;;;;20.64;44.42;99643.41;5074801;28;19920;-64
2023/09/23 07:43:38;;;;;;;;;;;;;;;20.61;44.54;99642.03;5076582;28;19920;-64
2023/09/23 07:46:03;;;;;;;;;;;;;;;20.55;44.43;99640.41;5076408;28;19970;-64
2023/09/23 07:48:29;;;;;;;;;;;;;;;20.58;45.39;99642.59;5076497;28;19912;-64
2023/09/23 07:50:54;;;;;;;;;;;;;;;20.42;44.69;99641.84;5076403;28;19961;-64
2023/09/23 07:53:20;;;;;;;;;;;;;;;20.37;44.70;99641.03;5076352;28;20381;-64
2023/09/23 07:55:45;;;;;;;;;;;;;;;20.44;44.63;99638.81;5085162;28;19995;-64
2023/09/23 07:58:11;;;;;;;;;;;;;;;20.55;45.22;99647.78;5096745;28;19916;-64
2023/09/23 08:00:36;;;;;;;;;;;;;;;20.65;45.10;99654.03;5061635;28;20326;-64
2023/09/23 08:03:01;;;;;;;;;;;;;;;20.70;45.28;99661.38;5080730;28;19913;-64
2023/09/23 08:05:29;;;;;;;;;;;;;;;20.81;44.92;99667.59;5076237;28;20031;-64
2023/09/23 08:07:55;;;;;;;;;;;;;;;20.93;44.86;99667.25;5075983;28;20278;-65
2023/09/23 08:10:20;;;;;;;;;;;;;;;21.06;44.59;99670.19;5076146;28;19923;-64
2023/09/23 08:12:45;;;;;;;;;;;;;;;20.98;44.42;99673.50;5076011;28;19920;-64
2023/09/23 08:15:11;;;;;;;;;;;;;;;21.12;44.66;99675.59;5076233;28;20016;-64
2023/09/23 08:17:38;;;;;;;;;;;;;;;21.28;44.45;99677.13;5081384;28;19916;-64
2023/09/23 08:20:17;;;;;;;;;;;;;;;21.21;43.89;99676.63;5076367;28;19960;-64
2023/09/23 08:22:44;;;;;;;;;;;;;;;21.24;44.52;99674.13;5076347;28;19995;-64
2023/09/23 08:25:09;;;;;;;;;;;;;;;21.38;44.29;99670.78;5075878;28;20685;-64
2023/09/23 08:27:35;;;;;;;;;;;;;;;21.51;44.06;99677.53;5082497;28;19912;-64
2023/09/23 08:30:00;;;;;;;;;;;;;;;21.61;43.62;99681.00;5077854;28;19920;-64
2023/09/23 08:32:26;;;;;;;;;;;;;;;21.76;44.26;99679.22;5076049;28;19920;-64
2023/09/23 08:34:51;;;;;;;;;;;;;;;21.72;42.81;99697.31;5075866;28;19912;-64
2023/09/23 08:37:16;;;;;;;;;;;;;;;21.60;44.03;99693.03;5075445;28;19924;-64
2023/09/23 08:39:42;;;;;;;;;;;;;;;21.43;43.88;99693.41;5075637;28;20015;-64
2023/09/23 08:42:07;;;;;;;;;;;;;;;21.40;43.95;99696.72;5075881;28;19912;-64
2023/09/23 08:44:33;;;;;;;;;;;;;;;21.38;43.53;99698.91;5075650;28;20384;-64
2023/09/23 08:46:59;;;;;;;;;;;;;;;21.42;43.50;99696.44;5075788;28;19920;-64
2023/09/23 08:49:25;;;;;;;;;;;;;;;21.45;43.26;99696.72;5075309;28;19912;-64
2023/09/23 08:51:53;;;;;;;;;;;;;;;21.46;43.49;99703.78;5075186;28;19923;-64
2023/09/23 08:54:22;;;;;;;;;;;;;;;21.68;43.38;99699.00;5074594;28;19912;-64
2023/09/23 08:56:50;;;;;;;;;;;;;;;21.72;42.64;99698.13;5093457;28;19937;-64
2023/09/23 08:59:15;;;;;;;;;;;;;;;21.79;43.04;99695.88;5093344;28;19923;-64
2023/09/23 09:01:41;;;;;;;;;;;;;;;21.71;42.17;99695.66;5070517;28;19912;-64
2023/09/23 09:04:06;;;;;;;;;;;;;;;21.58;41.87;99692.50;5055367;28;20007;-64
2023/09/23 09:06:32;;;;;;;;;;;;;;;21.46;41.59;99695.59;5073999;28;19999;-64
2023/09/23 09:08:57;;;;;;;;;;;;;;;21.39;43.23;99703.25;5074760;28;20292;-64
2023/09/23 09:11:26;;;;;;;;;;;;;;;21.34;41.83;99699.75;5075003;28;19920;-65
2023/09/23 09:13:52;;;;;;;;;;;;;;;21.25;42.52;99702.28;5074739;28;19919;-63
2023/09/23 09:16:18;;;;;;;;;;;;;;;21.19;42.65;99703.41;5083880;28;19912;-63
2023/09/23 09:18:44;;;;;;;;;;;;;;;21.13;42.05;99710.81;5095033;28;19970;-63
2023/09/23 09:21:09;;;;;;;;;;;;;;;21.13;42.34;99710.00;5095250;28;19955;-63
2023/09/23 09:23:38;;;;;;;;;;;;;;;21.22;43.37;99711.03;5094738;28;19916;-64
2023/09/23 09:26:04;;;;;;;;;;;;;;;21.18;42.15;99715.44;5076614;28;19998;-63
2023/09/23 09:28:30;;;;;;;;;;;;;;;21.17;42.57;99708.34;5080295;28;19912;-64
2023/09/23 09:30:56;;;;;;;;;;;;;;;21.18;43.18;99716.25;5074586;28;19966;-64
2023/09/23 09:33:26;;;;;;;;;;;;;;;21.15;42.85;99716.00;5074608;28;19913;-64
2023/09/23 09:35:54;;;;;;;;;;;;;;;21.18;42.88;99716.25;5074307;28;20323;-63
2023/09/23 09:38:20;;;;;;;;;;;;;;;21.22;43.72;99709.13;5074208;28;19916;-63
2023/09/23 09:40:46;;;;;;;;;;;;;;;21.25;42.68;99710.47;5074663;28;19951;-64
2023/09/23 09:43:11;;;;;;;;;;;;;;;21.24;42.57;99711.56;5074090;28;20315;-64
2023/09/23 09:45:42;;;;;;;;;;;;;;;21.20;42.83;99705.84;5074202;28;19923;-63
2023/09/23 09:48:08;;;;;;;;;;;;;;;21.55;41.63;99706.72;5074029;28;20050;-63
2023/09/23 09:50:38;;;;;;;;;;;;;;;21.35;43.31;99704.13;5073830;28;20003;-63
2023/09/23 09:53:05;;;;;;;;;;;;;;;21.34;42.93;99707.94;5056262;28;20388;-62
2023/09/23 09:55:31;;;;;;;;;;;;;;;21.37;43.60;99710.94;5073260;28;19924;-62
2023/09/23 09:57:56;;;;;;;;;;;;;;;21.44;42.82;99702.41;5063773;28;19917;-64
2023/09/23 10:00:28;;;;;;;;;;;;;;;21.32;43.56;99697.31;5054158;28;19927;-65
2023/09/23 10:02:59;;;;;;;;;;;;;;;21.35;42.55;99702.19;5072937;28;20408;-64
2023/09/23 10:05:31;;;;;;;;;;;;;;;21.36;42.52;99700.28;5073676;28;19931;-66
2023/09/23 10:07:56;;;;;;;;;;;;;;;21.46;42.59;99700.25;5073703;28;19924;-66
2023/09/23 10:10:31;;;;;;;;;;;;;;;21.45;42.30;99704.91;5083612;28;19939;-65
2023/09/23 10:13:12;;;;;;;;;;;;;;;21.60;43.13;99701.25;5061363;28;19920;-66
2023/09/23 10:15:40;;;;;;;;;;;;;;;21.72;41.83;99700.84;5062900;28;20371;-63
2023/09/23 10:18:13;;;;;;;;;;;;;;;21.75;42.34;99703.03;5070735;28;20286;-62
2023/09/23 10:20:39;;;;;;;;;;;;;;;21.80;42.09;99708.44;5072709;28;19916;-63
2023/09/23 10:23:06;;;;;;;;;;;;;;;21.87;42.56;99704.56;5072435;28;19919;-63
2023/09/23 10:25:38;;;;;;;;;;;;;;;21.83;40.89;99715.25;5069847;28;19928;-63
2023/09/23 10:28:04;;;;;;;;;;;;;;;21.81;41.50;99712.00;5072300;28;19966;-63
2023/09/23 10:30:29;;;;;;;;;;;;;;;21.82;41.26;99710.88;5070193;28;19920;-66
2023/09/23 10:32:55;;;;;;;;;;;;;;;21.85;41.65;99719.31;5073126;28;19920;-66
2023/09/23 10:35:23;;;;;;;;;;;;;;;21.88;41.16;99711.63;5072319;28;19932;-64
2023/09/23 10:37:49;;;;;;;;;;;;;;;21.93;41.85;99708.88;5069556;28;19916;-64
2023/09/23 10:40:17;;;;;;;;;;;;;;;21.93;41.73;99708.88;5072447;28;19918;-62
2023/09/23 10:42:47;;;;;;;;;;;;;;;22.10;42.42;99705.69;5068569;28;20372;-63
2023/09/23 10:45:13;;;;;;;;;;;;;;;22.38;42.06;99704.03;5070878;28;19944;-62
2023/09/23 10:47:38;;;;;;;;;;;;;;;22.45;41.05;99710.00;5070777;28;19963;-62
2023/09/23 10:50:06;;;;;;;;;;;;;;;22.47;41.24;99706.97;5070167;28;20317;-61
2023/09/23 10:52:31;;;;;;;;;;;;;;;22.38;41.36;99715.00;5061986;28;19917;-62
2023/09/23 10:54:57;;;;;;;;;;;;;;;22.34;40.60;99720.25;5067715;28;19920;-62
2023/09/23 10:57:23;;;;;;;;;;;;;;;22.42;41.23;99716.06;5070770;28;19991;-62
2023/09/23 10:59:49;;;;;;;;;;;;;;;22.52;42.33;99720.59;5072626;28;20306;-62
2023/09/23 11:02:14;;;;;;;;;;;;;;;22.55;41.32;99715.34;5070537;28;20396;-62
2023/09/23 11:04:44;;;;;;;;;;;;;;;22.52;40.72;99713.19;5071562;28;19920;-66
2023/09/23 11:07:09;;;;;;;;;;;;;;;22.75;41.61;99716.19;5063499;28;19912;-65
2023/09/23 11:09:36;;;;;;;;;;;;;;;22.92;40.73;99711.06;5071461;28;20377;-63
2023/09/23 11:12:12;;;;;;;;;;;;;;;22.93;41.56;99712.69;5070522;28;19924;-64
2023/09/23 11:14:41;;;;;;;;;;;;;;;22.89;39.27;99724.53;5065233;28;19939;-64
2023/09/23 11:17:06;;;;;;;;;;;;;;;23.05;40.08;99716.94;5090389;28;19912;-64
2023/09/23 11:19:33;;;;;;;;;;;;;;;23.13;40.74;99717.09;5065180;28;19931;-64
2023/09/23 11:21:59;;;;;;;;;;;;;;;23.26;40.07;99718.28;5076442;28;19912;-64
2023/09/23 11:24:24;;;;;;;;;;;;;;;23.28;39.43;99724.28;5074397;28;19921;-65
2023/09/23 11:26:50;;;;;;;;;;;;;;;23.30;40.59;99722.03;5074060;28;19912;-65
2023/09/23 11:29:15;;;;;;;;;;;;;;;23.40;40.35;99729.28;5076283;28;19955;-65
2023/09/23 11:31:41;;;;;;;;;;;;;;;23.61;39.85;99729.81;5073444;28;19924;-63
2023/09/23 11:34:06;;;;;;;;;;;;;;;23.81;40.63;99720.47;5075527;28;19970;-64
2023/09/23 11:36:32;;;;;;;;;;;;;;;24.11;42.48;99732.81;5073192;28;20285;-64
2023/09/23 11:38:58;;;;;;;;;;;;;;;24.32;38.27;99732.44;5072338;28;20007;-64
2023/09/23 11:41:24;;;;;;;;;;;;;;;24.61;39.85;99734.09;5072862;28;20373;-63
2023/09/23 11:43:50;;;;;;;;;;;;;;;24.88;40.83;99736.03;5072057;28;19912;-63
2023/09/23 11:46:19;;;;;;;;;;;;;;;24.95;36.93;99733.69;5072349;28;19912;-63
2023/09/23 11:48:48;;;;;;;;;;;;;;;25.17;37.56;99740.34;5074636;28;19961;-63
2023/09/23 11:51:13;;;;;;;;;;;;;;;25.45;38.72;99732.88;5072050;28;19913;-63
2023/09/23 11:53:39;;;;;;;;;;;;;;;25.65;38.49;99740.63;5075635;28;19970;-64
2023/09/23 11:56:04;;;;;;;;;;;;;;;25.86;36.99;99748.38;5073102;28;20028;-64
2023/09/23 11:58:29;;;;;;;;;;;;;;;25.98;34.61;99740.38;5074400;28;20250;-64
2023/09/23 12:00:56;;;;;;;;;;;;;;;26.11;34.88;99743.34;5073743;28;20266;-65
2023/09/23 12:03:22;;;;;;;;;;;;;;;26.36;35.31;99742.69;5072041;28;19942;-65
2023/09/23 12:05:48;;;;;;;;;;;;;;;26.59;34.49;99748.91;5074051;28;19987;-65
2023/09/23 12:08:13;;;;;;;;;;;;;;;26.79;34.15;99746.75;5070506;28;19929;-65
2023/09/23 12:10:38;;;;;;;;;;;;;;;26.83;33.72;99744.97;5070285;28;19919;-63
2023/09/23 12:13:05;;;;;;;;;;;;;;;26.98;34.20;99744.50;5073666;28;19912;-64
2023/09/23 12:15:36;;;;;;;;;;;;;;;27.26;33.80;99751.72;5070999;28;19913;-64
2023/09/23 12:18:02;;;;;;;;;;;;;;;27.46;33.25;99753.03;5071557;28;20019;-64
2023/09/23 12:20:28;;;;;;;;;;;;;;;27.59;33.44;99741.03;5071641;28;20032;-63
2023/09/23 12:22:54;;;;;;;;;;;;;;;27.91;35.29;99749.94;5072330;28;19924;-65
2023/09/23 12:25:20;;;;;;;;;;;;;;;28.08;39.22;99749.06;5059145;28;19913;-64
2023/09/23 12:27:46;;;;;;;;;;;;;;;28.23;37.43;99743.03;5070169;28;19963;-64
2023/09/23 12:30:13;;;;;;;;;;;;;;;28.25;33.34;99753.72;5071488;28;19943;-63
2023/09/23 12:32:39;;;;;;;;;;;;;;;28.51;36.78;99748.09;5070668;28;19913;-63
2023/09/23 12:35:05;;;;;;;;;;;;;;;28.74;30.26;99745.94;5070609;28;19913;-63
2023/09/23 12:37:30;;;;;;;;;;;;;;;28.88;29.23;99748.44;5071483;28;19916;-65
2023/09/23 12:39:55;;;;;;;;;;;;;;;29.14;33.27;99749.13;5070841;28;19912;-65
2023/09/23 12:42:21;;;;;;;;;;;;;;;29.28;30.49;99751.63;5071752;28;19919;-65
2023/09/23 12:44:46;;;;;;;;;;;;;;;29.22;29.82;99758.50;5072091;28;19916;-63